Date,TemperatureHighF,TemperatureAvgF,TemperatureLowF,DewpointHighF,DewpointAvgF,DewpointLowF,HumidityHigh,HumidityAvg,HumidityLow,PressureMaxIn,PressureMinIn,WindSpeedMaxMPH,WindSpeedAvgMPH,GustSpeedMaxMPH,PrecipitationSumIn
2013-3-1,51,42,33,45,38,32,99,87,66,30.50,30.44,8,2,8,0.00
2013-3-2,50,40,28,42,36,28,99,87,69,30.45,30.28,4,1,4,0.00
2013-3-3,49,42,39,42,37,34,93,83,61,30.26,30.04,9,2,9,0.00
2013-3-4,50,42,33,38,36,31,94,79,63,30.01,29.71,8,2,8,0.00
2013-3-5,51,40,28,44,36,27,99,88,63,29.68,29.51,9,3,9,0.00
2013-3-6,49,45,43,48,45,42,99,97,94,29.51,29.41,7,4,10,0.38
2013-3-7,47,46,45,47,46,45,99,99,99,29.41,29.22,10,5,14,0.33
2013-3-8,53,48,45,51,48,45,99,98,94,29.45,29.22,11,6,11,0.08
2013-3-9,47,44,40,47,44,40,99,99,99,29.67,29.44,14,6,15,0.12
2013-3-10,41,38,34,40,31,18,99,75,51,29.89,29.65,19,11,27,0.00
2013-3-11,38,33,30,28,22,18,88,64,51,30.04,29.89,21,9,21,0.00
2013-3-12,43,35,29,32,25,20,84,67,54,30.05,29.92,11,5,16,0.00
2013-3-13,48,38,30,39,34,30,99,86,62,30.03,29.89,6,2,6,0.01
2013-3-14,51,39,28,43,36,28,99,89,73,30.04,29.75,12,6,12,0.01
2013-3-15,52,44,34,44,39,32,94,84,64,29.68,29.31,15,6,15,0.04
2013-3-16,52,39,29,43,34,29,99,84,51,29.31,29.21,8,2,8,0.01
2013-3-17,47,37,33,45,36,32,99,97,92,29.24,28.77,11,3,11,0.17
2013-3-18,48,40,35,42,37,34,99,93,71,29.40,29.12,11,4,11,0.19
2013-3-19,41,37,34,39,36,33,99,97,89,29.50,29.39,6,2,7,0.22
2013-3-20,48,39,33,44,37,33,99,93,76,29.86,29.48,7,2,7,0.01
2013-3-21,44,41,39,41,38,36,98,91,76,29.83,29.59,18,11,26,0.24
2013-3-22,42,41,39,42,40,38,99,99,96,29.65,29.43,21,14,21,0.30
2013-3-23,41,39,37,40,37,34,99,93,85,29.89,29.63,14,8,16,0.01
2013-3-24,37,36,35,34,30,28,89,80,71,30.02,29.86,17,10,21,0.00
2013-3-25,40,37,35,29,27,26,76,67,59,30.07,30.00,16,10,16,0.00
2013-3-26,42,36,33,34,31,26,93,82,65,30.06,29.96,11,6,16,0.07
2013-3-27,41,36,32,36,32,27,98,86,73,29.99,29.92,10,4,14,0.11
2013-3-28,42,37,32,33,30,26,98,77,61,29.96,29.86,16,5,18,0.09
2013-3-29,43,39,35,29,26,25,69,61,50,29.86,29.79,11,7,11,0.00
2013-3-30,48,40,35,30,26,24,70,58,43,29.93,29.80,11,5,11,0.00
2013-3-31,42,40,37,31,29,26,74,67,59,29.88,29.80,12,7,16,0.00